createdAt,value
2023-02-03T00:01:44.053Z,0.23
2023-02-03T00:04:19.724Z,0.19
2023-02-03T00:07:04.466Z,0.13
2023-02-03T00:09:36.770Z,0.06
2023-02-03T00:12:08.995Z,0.05
2023-02-03T00:14:41.087Z,0.02
2023-02-03T00:17:11.023Z,0.00
2023-02-03T00:19:39.656Z,-0.01
2023-02-03T00:22:15.356Z,-0.03
2023-02-03T00:25:00.477Z,-0.04
2023-02-03T00:27:29.249Z,-0.04
2023-02-03T00:29:58.141Z,-0.03
2023-02-03T00:32:29.507Z,-0.01
2023-02-03T00:35:09.782Z,0.02
2023-02-03T00:37:41.310Z,0.04
2023-02-03T00:40:10.770Z,0.07
2023-02-03T00:42:41.746Z,0.09
2023-02-03T00:45:13.670Z,0.11
2023-02-03T00:47:42.957Z,0.11
2023-02-03T00:50:13.036Z,0.11
2023-02-03T00:52:45.761Z,0.11
2023-02-03T00:55:15.712Z,0.09
2023-02-03T00:57:49.216Z,0.06
2023-02-03T01:00:27.016Z,0.07
2023-02-03T01:02:58.343Z,0.08
2023-02-03T01:05:29.721Z,0.08
2023-02-03T01:07:58.576Z,0.08
2023-02-03T01:10:29.143Z,0.07
2023-02-03T01:13:10.136Z,0.07
2023-02-03T01:15:45.678Z,0.04
2023-02-03T01:18:14.856Z,0.03
2023-02-03T01:20:44.028Z,0.01
2023-02-03T01:23:15.608Z,0.00
2023-02-03T01:25:44.304Z,-0.03
2023-02-03T01:28:15.645Z,-0.04
2023-02-03T01:30:47.345Z,-0.05
2023-02-03T01:33:18.972Z,-0.06
2023-02-03T01:35:47.338Z,-0.09
2023-02-03T01:38:15.820Z,-0.10
2023-02-03T01:40:45.292Z,-0.10
2023-02-03T01:43:39.680Z,-0.10
2023-02-03T01:46:43.070Z,-0.11
2023-02-03T01:49:26.730Z,-0.12
2023-02-03T01:51:56.468Z,-0.14
2023-02-03T01:54:31.844Z,-0.15
2023-02-03T01:57:20.514Z,-0.15
2023-02-03T01:59:53.629Z,-0.15
2023-02-03T02:02:22.951Z,-0.13
2023-02-03T02:05:24.791Z,-0.11
2023-02-03T02:07:54.947Z,-0.14
2023-02-03T02:10:27.035Z,-0.20
2023-02-03T02:13:04.585Z,-0.20
2023-02-03T02:15:42.787Z,-0.19
2023-02-03T02:18:43.902Z,-0.18
2023-02-03T02:21:42.983Z,-0.17
2023-02-03T02:24:46.972Z,-0.19
2023-02-03T02:28:22.674Z,-0.19
2023-02-03T02:31:29.706Z,-0.24
2023-02-03T02:34:22.723Z,-0.27
2023-02-03T02:37:05.058Z,-0.27
2023-02-03T02:40:10.654Z,-0.27
2023-02-03T02:42:51.000Z,-0.27
2023-02-03T02:45:31.778Z,-0.25
2023-02-03T02:48:13.132Z,-0.21
2023-02-03T02:50:45.577Z,-0.17
2023-02-03T02:53:18.426Z,-0.13
2023-02-03T02:55:48.029Z,-0.10
2023-02-03T02:58:20.120Z,-0.08
2023-02-03T03:00:51.820Z,-0.03
2023-02-03T03:03:24.252Z,0.01
2023-02-03T03:06:11.263Z,0.02
2023-02-03T03:08:55.223Z,0.05
2023-02-03T03:11:32.310Z,0.07
2023-02-03T03:14:05.492Z,0.11
2023-02-03T03:16:39.190Z,0.14
2023-02-03T03:19:15.759Z,0.15
2023-02-03T03:21:52.262Z,0.17
2023-02-03T03:24:28.928Z,0.21
2023-02-03T03:27:02.376Z,0.25
2023-02-03T03:29:46.447Z,0.27
2023-02-03T03:32:17.439Z,0.26
2023-02-03T03:34:47.470Z,0.29
2023-02-03T03:37:36.683Z,0.31
2023-02-03T03:40:18.780Z,0.35
2023-02-03T03:43:13.781Z,0.37
2023-02-03T03:46:06.402Z,0.34
2023-02-03T03:48:58.852Z,0.34
2023-02-03T03:51:47.715Z,0.31
2023-02-03T03:54:26.575Z,0.22
2023-02-03T03:57:06.990Z,0.24
2023-02-03T03:59:40.526Z,0.26
2023-02-03T04:02:09.728Z,0.30
2023-02-03T04:04:39.590Z,0.32
2023-02-03T04:07:09.385Z,0.33
2023-02-03T04:09:38.745Z,0.32
2023-02-03T04:12:23.160Z,0.31
2023-02-03T04:14:51.354Z,0.29
2023-02-03T04:17:21.800Z,0.27
2023-02-03T04:19:50.131Z,0.28
2023-02-03T04:22:18.219Z,0.29
2023-02-03T04:24:46.540Z,0.31
2023-02-03T04:27:15.590Z,0.32
2023-02-03T04:29:57.157Z,0.34
2023-02-03T04:32:25.938Z,0.36
2023-02-03T04:34:59.084Z,0.37
2023-02-03T04:37:30.330Z,0.38
2023-02-03T04:39:59.062Z,0.38
2023-02-03T04:42:27.968Z,0.31
2023-02-03T04:44:59.724Z,0.22
2023-02-03T04:47:29.587Z,0.12
2023-02-03T04:50:02.054Z,0.03
2023-02-03T04:52:35.337Z,-0.02
2023-02-03T04:55:06.429Z,-0.07
2023-02-03T04:57:39.472Z,-0.11
2023-02-03T05:00:13.955Z,-0.10
2023-02-03T05:02:42.935Z,-0.09
2023-02-03T05:05:12.387Z,-0.11
2023-02-03T05:07:41.234Z,-0.16
2023-02-03T05:10:10.933Z,-0.18
2023-02-03T05:12:40.525Z,-0.14
2023-02-03T05:15:09.482Z,-0.09
2023-02-03T05:17:40.946Z,-0.10
2023-02-03T05:20:13.235Z,-0.12
2023-02-03T05:22:43.811Z,-0.12
2023-02-03T05:25:13.591Z,-0.23
2023-02-03T05:27:43.805Z,-0.25
2023-02-03T05:30:16.258Z,-0.22
2023-02-03T05:32:51.167Z,-0.20
2023-02-03T05:35:20.607Z,-0.18
2023-02-03T05:37:49.077Z,-0.18
2023-02-03T05:40:38.045Z,-0.18
2023-02-03T05:43:07.533Z,-0.18
2023-02-03T05:45:36.622Z,-0.16
2023-02-03T05:48:07.280Z,-0.15
2023-02-03T05:50:38.585Z,-0.13
2023-02-03T05:53:10.552Z,-0.13
2023-02-03T05:55:39.594Z,-0.12
2023-02-03T05:58:10.175Z,-0.13
2023-02-03T06:00:39.435Z,-0.14
2023-02-03T06:03:11.664Z,-0.11
2023-02-03T06:05:41.117Z,-0.10
2023-02-03T06:08:14.134Z,-0.10
2023-02-03T06:11:13.462Z,-0.09
2023-02-03T06:13:42.269Z,-0.11
2023-02-03T06:16:15.161Z,-0.12
2023-02-03T06:18:44.125Z,-0.11
2023-02-03T06:21:24.218Z,-0.07
2023-02-03T06:23:54.653Z,-0.05
2023-02-03T06:26:35.276Z,-0.04
2023-02-03T06:29:54.309Z,-0.02
2023-02-03T06:33:00.824Z,-0.03
2023-02-03T06:35:33.353Z,-0.01
2023-02-03T06:38:04.959Z,0.02
2023-02-03T06:40:35.686Z,0.08
2023-02-03T06:43:06.222Z,0.15
2023-02-03T06:45:35.405Z,0.17
2023-02-03T06:48:14.821Z,0.17
2023-02-03T06:50:46.409Z,0.18
2023-02-03T06:53:16.122Z,0.20
2023-02-03T06:55:44.180Z,0.25
2023-02-03T06:58:12.370Z,0.30
2023-02-03T07:00:40.888Z,0.36
2023-02-03T07:03:09.089Z,0.45
2023-02-03T07:05:37.615Z,0.48
2023-02-03T07:08:08.811Z,0.43
2023-02-03T07:10:41.491Z,0.42
2023-02-03T07:13:14.717Z,0.41
2023-02-03T07:15:43.233Z,0.40
2023-02-03T07:18:21.370Z,0.40
2023-02-03T07:20:59.407Z,0.38
2023-02-03T07:23:31.881Z,0.37
2023-02-03T07:26:12.994Z,0.38
2023-02-03T07:28:47.822Z,0.39
2023-02-03T07:31:22.322Z,0.39
2023-02-03T07:33:51.543Z,0.46
2023-02-03T07:36:24.037Z,0.46
2023-02-03T07:38:56.658Z,0.45
2023-02-03T07:41:51.189Z,0.45
2023-02-03T07:44:39.476Z,0.47
2023-02-03T07:47:13.996Z,0.52
2023-02-03T07:49:44.865Z,0.56
2023-02-03T07:52:27.318Z,0.52
2023-02-03T07:54:56.509Z,0.49
2023-02-03T07:57:28.150Z,0.48
2023-02-03T07:59:56.932Z,0.48
2023-02-03T08:02:42.003Z,0.44
2023-02-03T08:05:24.690Z,0.40
2023-02-03T08:07:57.146Z,0.39
2023-02-03T08:10:36.013Z,0.39
2023-02-03T08:13:05.961Z,0.40
2023-02-03T08:15:34.391Z,0.39
2023-02-03T08:18:08.316Z,0.40
2023-02-03T08:20:40.768Z,0.47
2023-02-03T08:23:09.243Z,0.49
2023-02-03T08:25:37.679Z,0.49
2023-02-03T08:28:09.107Z,0.53
2023-02-03T08:30:42.297Z,0.57
2023-02-03T08:33:13.439Z,0.63
2023-02-03T08:35:49.588Z,0.65
2023-02-03T08:38:24.023Z,0.61
2023-02-03T08:41:00.976Z,0.56
2023-02-03T08:43:31.186Z,0.54
2023-02-03T08:46:15.067Z,0.53
2023-02-03T08:49:01.904Z,0.53
2023-02-03T08:51:40.652Z,0.55
2023-02-03T08:54:15.468Z,0.56
2023-02-03T08:56:54.709Z,0.55
2023-02-03T08:59:28.598Z,0.56
2023-02-03T09:02:00.694Z,0.59
2023-02-03T09:04:29.366Z,0.63
2023-02-03T09:07:00.325Z,0.67
2023-02-03T09:09:33.828Z,0.68
2023-02-03T09:12:12.496Z,0.68
2023-02-03T09:14:55.900Z,0.66
2023-02-03T09:17:24.594Z,0.64
2023-02-03T09:20:05.648Z,0.64
2023-02-03T09:22:39.843Z,0.64
2023-02-03T09:25:15.908Z,0.63
2023-02-03T09:27:47.682Z,0.63
2023-02-03T09:30:17.921Z,0.64
2023-02-03T09:32:56.168Z,0.65
2023-02-03T09:35:30.165Z,0.65
2023-02-03T09:38:02.144Z,0.64
2023-02-03T09:40:42.582Z,0.61
2023-02-03T09:43:48.526Z,0.62
2023-02-03T09:46:29.529Z,0.60
2023-02-03T09:50:04.151Z,0.61
2023-02-03T09:52:44.442Z,0.64
2023-02-03T09:55:38.437Z,0.65
2023-02-03T09:58:24.530Z,0.67
2023-02-03T10:01:03.766Z,0.70
2023-02-03T10:03:56.393Z,0.71
2023-02-03T10:06:44.867Z,0.72
2023-02-03T10:09:45.386Z,0.80
2023-02-03T10:13:03.549Z,0.78
2023-02-03T10:16:00.751Z,0.74
2023-02-03T10:19:04.154Z,0.76
2023-02-03T10:21:55.833Z,0.78
2023-02-03T10:25:25.419Z,0.76
2023-02-03T10:28:01.125Z,0.75
2023-02-03T10:31:05.530Z,0.76
2023-02-03T10:33:41.241Z,0.75
2023-02-03T10:37:00.409Z,0.80
2023-02-03T10:39:50.805Z,0.79
2023-02-03T10:42:53.273Z,0.82
2023-02-03T10:45:55.876Z,0.88
2023-02-03T10:48:33.071Z,0.89
2023-02-03T10:51:30.805Z,0.93
2023-02-03T10:54:46.882Z,0.99
2023-02-03T10:57:16.972Z,0.94
2023-02-03T10:59:49.407Z,0.83
2023-02-03T11:02:31.944Z,0.83
2023-02-03T11:05:28.781Z,0.82
2023-02-03T11:08:18.392Z,0.81
2023-02-03T11:11:27.783Z,0.81
2023-02-03T11:14:29.597Z,0.84
2023-02-03T11:18:44.249Z,0.87
2023-02-03T11:21:57.529Z,0.80
2023-02-03T11:24:46.227Z,0.78
2023-02-03T11:27:24.921Z,0.84
2023-02-03T11:30:30.957Z,0.87
2023-02-03T11:33:15.941Z,0.88
2023-02-03T11:36:15.181Z,0.93
2023-02-03T11:38:52.032Z,0.97
2023-02-03T11:41:51.508Z,1.00
2023-02-03T11:45:26.882Z,1.01
2023-02-03T11:48:50.632Z,1.02
2023-02-03T11:51:50.295Z,1.04
2023-02-03T11:54:26.790Z,1.09
2023-02-03T11:57:09.764Z,1.11
2023-02-03T12:00:16.894Z,1.11
2023-02-03T12:04:00.604Z,1.10
2023-02-03T12:07:30.394Z,1.09
2023-02-03T12:10:56.994Z,1.13
2023-02-03T12:14:05.139Z,1.19
2023-02-03T12:17:23.733Z,1.25
2023-02-03T12:21:01.322Z,1.27
2023-02-03T12:24:22.149Z,1.29
2023-02-03T12:27:33.906Z,1.33
2023-02-03T12:30:18.638Z,1.41
2023-02-03T12:33:38.946Z,1.47
2023-02-03T12:36:58.468Z,1.51
2023-02-03T12:39:52.559Z,1.59
2023-02-03T12:42:57.455Z,1.63
2023-02-03T12:45:43.413Z,1.67
2023-02-03T12:49:00.134Z,1.71
2023-02-03T12:51:40.145Z,1.74
2023-02-03T12:54:49.320Z,1.80
2023-02-03T12:57:49.017Z,1.88
2023-02-03T13:01:10.991Z,1.93
2023-02-03T13:04:07.910Z,2.00
2023-02-03T13:06:52.307Z,2.05
2023-02-03T13:13:09.668Z,2.25
2023-02-03T13:15:58.092Z,2.31
2023-02-03T13:18:59.363Z,2.40
2023-02-03T13:22:00.515Z,2.49
2023-02-03T13:24:40.139Z,2.56
2023-02-03T13:27:49.758Z,2.65
2023-02-03T13:30:54.731Z,2.74
2023-02-03T13:33:58.143Z,2.84
2023-02-03T13:37:06.082Z,2.95
2023-02-03T13:39:53.832Z,3.07
2023-02-03T13:42:39.661Z,3.18
2023-02-03T13:45:48.341Z,3.26
2023-02-03T13:48:53.174Z,3.33
2023-02-03T14:49:16.611Z,4.18
2023-02-03T14:53:02.399Z,4.15
2023-02-03T14:56:11.474Z,4.13
2023-02-03T15:16:24.645Z,4.14
2023-02-03T15:19:50.304Z,4.10
2023-02-03T15:22:42.749Z,4.08
2023-02-03T15:25:44.972Z,4.08
2023-02-03T15:38:00.267Z,4.08
2023-02-03T15:41:28.088Z,4.02
2023-02-03T15:44:03.359Z,4.00
2023-02-03T16:08:45.960Z,3.93
2023-02-03T16:11:38.111Z,3.96
2023-02-03T16:14:36.038Z,3.98
2023-02-03T16:17:35.724Z,3.99
2023-02-03T16:20:15.247Z,3.99
2023-02-03T16:23:06.632Z,4.02
2023-02-03T16:25:38.826Z,4.05
2023-02-03T16:28:29.866Z,4.10
2023-02-03T16:31:40.039Z,4.12
2023-02-03T16:34:37.620Z,4.14
2023-02-03T16:37:47.193Z,4.18
2023-02-03T16:40:41.755Z,4.20
2023-02-03T16:43:32.440Z,4.21
2023-02-03T16:46:20.101Z,4.22
2023-02-03T16:49:20.874Z,4.21
2023-02-03T16:51:50.723Z,4.21
2023-02-03T16:54:26.199Z,4.23
2023-02-03T16:57:08.334Z,4.25
2023-02-03T16:59:39.620Z,4.27
2023-02-03T17:02:10.864Z,4.30
2023-02-03T17:04:52.203Z,4.30
2023-02-03T17:07:35.514Z,4.31
2023-02-03T17:10:29.224Z,4.34
2023-02-03T17:13:01.748Z,4.37
2023-02-03T17:15:30.553Z,4.41
2023-02-03T17:17:59.525Z,4.45
2023-02-03T17:20:31.196Z,4.48
2023-02-03T17:23:00.576Z,4.50
2023-02-03T17:25:36.077Z,4.52
2023-02-03T17:28:08.983Z,4.53
2023-02-03T17:30:48.067Z,4.53
2023-02-03T17:33:23.695Z,4.53
2023-02-03T17:36:19.997Z,4.55
2023-02-03T17:53:41.004Z,4.34
2023-02-03T17:56:20.751Z,4.33
2023-02-03T17:59:16.191Z,4.33
2023-02-03T18:02:17.629Z,4.32
2023-02-03T18:05:18.403Z,4.33
2023-02-03T18:08:03.336Z,4.35
2023-02-03T18:10:53.091Z,4.35
2023-02-03T18:13:45.912Z,4.34
2023-02-03T18:16:34.810Z,4.32
2023-02-03T18:19:27.310Z,4.29
2023-02-03T18:22:03.310Z,4.29
2023-02-03T18:24:39.021Z,4.31
2023-02-03T18:27:11.477Z,4.35
2023-02-03T18:29:59.317Z,4.38
2023-02-03T18:32:48.575Z,4.38
2023-02-03T18:36:19.260Z,4.37
2023-02-03T18:39:07.847Z,4.36
2023-02-03T18:41:56.410Z,4.35
2023-02-03T18:44:48.115Z,4.35
2023-02-03T18:47:41.129Z,4.40
2023-02-03T18:50:20.385Z,4.43
2023-02-03T18:53:13.292Z,4.45
2023-02-03T18:56:13.892Z,4.44
2023-02-03T18:58:45.221Z,4.45
2023-02-03T19:01:51.112Z,4.47
2023-02-03T19:04:30.087Z,4.50
2023-02-03T19:07:17.415Z,4.51
2023-02-03T19:10:15.424Z,4.52
2023-02-03T19:13:07.136Z,4.44
2023-02-03T19:15:41.290Z,4.44
2023-02-03T19:18:22.310Z,4.47
2023-02-03T19:21:30.791Z,4.50
2023-02-03T19:24:08.136Z,4.50
2023-02-03T19:26:48.419Z,4.50
2023-02-03T19:29:28.540Z,4.52
2023-02-03T19:32:00.404Z,4.53
2023-02-03T19:35:13.315Z,4.51
2023-02-03T19:39:19.369Z,4.46
2023-02-03T19:40:52.879Z,4.48
2023-02-03T19:43:22.939Z,4.52
2023-02-03T19:45:56.245Z,4.52
2023-02-03T19:49:30.564Z,4.54
2023-02-03T19:52:19.933Z,4.52
2023-02-03T19:55:56.388Z,4.51
2023-02-03T19:59:43.584Z,4.49
2023-02-03T20:04:02.433Z,4.47
2023-02-03T20:07:07.970Z,4.46
2023-02-03T21:05:03.151Z,4.74
2023-02-03T21:07:44.167Z,4.74
2023-02-03T21:10:23.700Z,4.76
2023-02-03T21:12:55.691Z,4.79
2023-02-03T21:34:49.196Z,4.77
2023-02-03T21:37:45.399Z,4.71
2023-02-03T21:40:35.106Z,4.67
2023-02-03T21:43:29.358Z,4.65
2023-02-03T21:48:45.338Z,4.64
2023-02-03T21:51:50.143Z,4.63
2023-02-03T21:54:32.572Z,4.63
2023-02-03T22:31:53.623Z,4.58
2023-02-03T22:34:26.415Z,4.60
2023-02-03T22:37:14.383Z,4.62
2023-02-03T22:39:54.358Z,4.62
2023-02-03T22:42:40.533Z,4.57
2023-02-03T22:45:25.226Z,4.54
2023-02-03T22:48:28.282Z,4.52
2023-02-03T22:51:46.370Z,4.49
2023-02-03T22:54:46.575Z,4.48
2023-02-03T22:57:58.273Z,4.44
2023-02-03T23:00:37.065Z,4.46
2023-02-03T23:03:37.557Z,4.45
2023-02-03T23:07:03.139Z,4.42
2023-02-03T23:09:50.801Z,4.36
2023-02-03T23:12:51.343Z,4.33
2023-02-03T23:15:38.720Z,4.28
2023-02-03T23:18:31.562Z,4.24
2023-02-03T23:21:11.835Z,4.16
2023-02-03T23:24:04.379Z,4.06
2023-02-03T23:26:45.491Z,3.95
2023-02-03T23:29:17.480Z,3.87
2023-02-03T23:32:01.375Z,3.74
2023-02-03T23:35:00.857Z,3.58
2023-02-03T23:37:58.023Z,3.42
2023-02-03T23:40:44.041Z,3.33
2023-02-03T23:43:37.344Z,3.24
2023-02-03T23:46:58.422Z,3.18
2023-02-03T23:49:43.044Z,3.10
2023-02-03T23:52:15.157Z,3.08
2023-02-03T23:54:55.147Z,3.06
2023-02-03T23:57:33.360Z,3.01
